createdAt,value
2016-05-17T00:00:13.453Z,0
2016-05-17T00:01:13.315Z,0
2016-05-17T00:02:13.490Z,0
2016-05-17T00:03:13.492Z,0
2016-05-17T00:04:13.511Z,0
2016-05-17T00:05:13.544Z,0
2016-05-17T00:06:13.547Z,0
2016-05-17T00:07:14.331Z,0
2016-05-17T00:08:13.583Z,0
2016-05-17T00:09:13.602Z,0
2016-05-17T00:10:13.621Z,0
2016-05-17T00:11:13.483Z,0
2016-05-17T00:12:13.673Z,0
2016-05-17T00:13:13.675Z,0
2016-05-17T00:14:13.694Z,0
2016-05-17T00:15:13.680Z,0
2016-05-17T00:16:13.699Z,0
2016-05-17T00:17:13.718Z,0
2016-05-17T00:18:13.735Z,0
2016-05-17T00:19:13.599Z,0
2016-05-17T00:20:13.585Z,0
2016-05-17T00:21:13.791Z,0
2016-05-17T00:22:14.044Z,0
2016-05-17T00:23:13.812Z,0
2016-05-17T00:24:13.846Z,0
2016-05-17T00:25:13.551Z,0
2016-05-17T00:26:13.539Z,0
2016-05-17T00:27:13.885Z,0
2016-05-17T00:28:13.732Z,0
2016-05-17T00:29:13.906Z,0
2016-05-17T00:30:13.753Z,0
2016-05-17T00:31:13.786Z,0
2016-05-17T00:32:13.790Z,0
2016-05-17T00:33:13.964Z,0
2016-05-17T00:34:13.825Z,0
2016-05-17T00:35:14.000Z,0
2016-05-17T00:36:14.019Z,0
2016-05-17T00:37:13.881Z,0
2016-05-17T00:38:14.040Z,0
2016-05-17T00:39:14.089Z,0
2016-05-17T00:40:14.077Z,0
2016-05-17T00:41:14.094Z,0
2016-05-17T00:42:14.113Z,0
2016-05-17T00:43:14.116Z,0
2016-05-17T00:44:14.119Z,0
2016-05-17T00:45:14.153Z,0
2016-05-17T00:46:14.139Z,0
2016-05-17T00:47:14.189Z,0
2016-05-17T00:48:14.192Z,0
2016-05-17T00:49:14.210Z,0
2016-05-17T00:50:14.071Z,0
2016-05-17T00:51:14.246Z,0
2016-05-17T00:52:14.437Z,0
2016-05-17T00:53:14.268Z,0
2016-05-17T00:54:13.973Z,0
2016-05-17T00:55:14.148Z,0
2016-05-17T00:56:14.151Z,0
2016-05-17T00:57:14.340Z,0
2016-05-17T00:58:14.375Z,0
2016-05-17T00:59:14.378Z,0
2016-05-17T01:00:14.365Z,0
2016-05-17T01:01:14.243Z,0
2016-05-17T01:02:14.401Z,0
2016-05-17T01:03:14.248Z,0
2016-05-17T01:04:14.422Z,0
2016-05-17T01:05:14.440Z,0
2016-05-17T01:06:14.458Z,0
2016-05-17T01:07:14.821Z,0
2016-05-17T01:08:14.480Z,0
2016-05-17T01:09:14.373Z,0
2016-05-17T01:10:14.361Z,0
2016-05-17T01:11:14.550Z,0
2016-05-17T01:12:14.569Z,0
2016-05-17T01:13:14.431Z,0
2016-05-17T01:14:14.449Z,0
2016-05-17T01:15:14.608Z,0
2016-05-17T01:16:14.627Z,0
2016-05-17T01:17:14.630Z,0
2016-05-17T01:18:14.647Z,0
2016-05-17T01:19:14.650Z,0
2016-05-17T01:20:14.685Z,0
2016-05-17T01:21:14.546Z,0
2016-05-17T01:22:14.580Z,0
2016-05-17T01:23:14.582Z,0
2016-05-17T01:24:14.741Z,0
2016-05-17T01:25:14.604Z,0
2016-05-17T01:26:14.607Z,0
2016-05-17T01:27:14.640Z,0
2016-05-17T01:28:14.784Z,0
2016-05-17T01:29:14.817Z,0
2016-05-17T01:30:14.664Z,0
2016-05-17T01:31:14.839Z,0
2016-05-17T01:32:14.856Z,0
2016-05-17T01:33:14.860Z,0
2016-05-17T01:34:14.862Z,0
2016-05-17T01:35:14.912Z,0
2016-05-17T01:36:14.915Z,0
2016-05-17T01:37:14.948Z,0
2016-05-17T01:38:14.623Z,0
2016-05-17T01:39:14.985Z,0
2016-05-17T01:40:14.831Z,0
2016-05-17T01:41:14.991Z,0
2016-05-17T01:42:15.025Z,0
2016-05-17T01:43:15.027Z,0
2016-05-17T01:44:15.045Z,0
2016-05-17T01:45:15.063Z,0
2016-05-17T01:46:15.082Z,0
2016-05-17T01:47:15.116Z,0
2016-05-17T01:48:14.946Z,0
2016-05-17T01:49:15.138Z,0
2016-05-17T01:50:15.140Z,0
2016-05-17T01:51:14.986Z,0
2016-05-17T01:52:15.880Z,0
2016-05-17T01:53:15.023Z,0
2016-05-17T01:54:15.197Z,0
2016-05-17T01:55:15.199Z,0
2016-05-17T01:56:15.234Z,0
2016-05-17T01:57:15.252Z,0
2016-05-17T01:58:15.255Z,0
2016-05-17T01:59:15.257Z,0
2016-05-17T02:00:15.292Z,0
2016-05-17T02:01:15.295Z,0
2016-05-17T02:02:15.312Z,0
2016-05-17T02:03:15.190Z,0
2016-05-17T02:04:15.208Z,0
2016-05-17T02:05:15.196Z,0
2016-05-17T02:06:15.386Z,0
2016-05-17T02:07:16.295Z,0
2016-05-17T02:08:15.501Z,0
2016-05-17T02:09:15.316Z,0
2016-05-17T02:10:15.444Z,0
2016-05-17T02:11:15.306Z,0
2016-05-17T02:12:15.511Z,0
2016-05-17T02:13:15.327Z,0
2016-05-17T02:14:15.517Z,0
2016-05-17T02:15:15.519Z,0
2016-05-17T02:16:15.631Z,0
2016-05-17T02:17:15.416Z,0
2016-05-17T02:18:15.636Z,0
2016-05-17T02:19:15.656Z,0
2016-05-17T02:20:15.657Z,0
2016-05-17T02:21:15.676Z,0
2016-05-17T02:22:15.851Z,0
2016-05-17T02:23:15.744Z,0
2016-05-17T02:24:15.763Z,0
2016-05-17T02:25:15.749Z,0
2016-05-17T02:26:15.752Z,0
2016-05-17T02:27:15.755Z,0
2016-05-17T02:28:15.632Z,0
2016-05-17T02:29:15.776Z,0
2016-05-17T02:30:15.779Z,0
2016-05-17T02:31:15.782Z,0
2016-05-17T02:32:15.643Z,0
2016-05-17T02:33:15.334Z,0
2016-05-17T02:34:15.773Z,0
2016-05-17T02:35:15.557Z,0
2016-05-17T02:36:15.716Z,0
2016-05-17T02:37:15.892Z,0
2016-05-17T02:38:15.597Z,0
2016-05-17T02:39:15.803Z,0
2016-05-17T02:40:15.603Z,0
2016-05-17T02:41:15.745Z,0
2016-05-17T02:42:15.920Z,0
2016-05-17T02:43:15.782Z,0
2016-05-17T02:44:15.800Z,0
2016-05-17T02:45:15.991Z,0
2016-05-17T02:46:15.837Z,0
2016-05-17T02:47:16.012Z,0
2016-05-17T02:48:16.030Z,0
2016-05-17T02:49:15.891Z,0
2016-05-17T02:50:16.051Z,0
2016-05-17T02:51:16.070Z,0
2016-05-17T02:52:16.291Z,0
2016-05-17T02:53:16.091Z,0
2016-05-17T02:54:15.952Z,0
2016-05-17T02:55:16.127Z,0
2016-05-17T02:56:16.146Z,0
2016-05-17T02:57:15.991Z,0
2016-05-17T02:58:16.010Z,0
2016-05-17T02:59:16.013Z,4
2016-05-17T03:00:16.032Z,4
2016-05-17T03:01:16.237Z,4
2016-05-17T03:02:16.240Z,0
2016-05-17T03:03:16.101Z,4
2016-05-17T03:04:16.245Z,4
2016-05-17T03:05:16.123Z,4
2016-05-17T03:06:16.312Z,4
2016-05-17T03:07:16.175Z,4
2016-05-17T03:08:16.178Z,0
2016-05-17T03:09:16.195Z,4
2016-05-17T03:10:16.339Z,4
2016-05-17T03:11:16.389Z,4
2016-05-17T03:12:16.236Z,4
2016-05-17T03:13:16.425Z,8
2016-05-17T03:14:16.256Z,8
2016-05-17T03:15:16.430Z,8
2016-05-17T03:16:16.465Z,8
2016-05-17T03:17:16.295Z,12
2016-05-17T03:18:16.330Z,12
2016-05-17T03:19:16.489Z,16
2016-05-17T03:20:16.507Z,16
2016-05-17T03:21:16.368Z,20
2016-05-17T03:22:16.543Z,20
2016-05-17T03:23:16.546Z,24
2016-05-17T03:24:16.408Z,24
2016-05-17T03:25:16.410Z,24
2016-05-17T03:26:16.648Z,24
2016-05-17T03:27:16.869Z,28
2016-05-17T03:28:16.685Z,28
2016-05-17T03:29:16.687Z,32
2016-05-17T03:30:16.534Z,32
2016-05-17T03:31:16.520Z,32
2016-05-17T03:32:16.680Z,36
2016-05-17T03:33:16.714Z,36
2016-05-17T03:34:16.716Z,40
2016-05-17T03:35:16.751Z,48
2016-05-17T03:36:16.737Z,48
2016-05-17T03:37:17.662Z,52
2016-05-17T03:38:16.789Z,56
2016-05-17T03:39:16.809Z,60
2016-05-17T03:40:16.842Z,64
2016-05-17T03:41:16.814Z,64
2016-05-17T03:42:16.675Z,72
2016-05-17T03:43:16.881Z,76
2016-05-17T03:44:16.900Z,84
2016-05-17T03:45:16.949Z,88
2016-05-17T03:46:16.920Z,92
2016-05-17T03:47:16.938Z,96
2016-05-17T03:48:16.770Z,104
2016-05-17T03:49:16.960Z,108
2016-05-17T03:50:16.977Z,120
2016-05-17T03:51:16.981Z,132
2016-05-17T03:52:16.999Z,144
2016-05-17T03:53:17.017Z,152
2016-05-17T03:54:17.035Z,164
2016-05-17T03:55:17.069Z,180
2016-05-17T03:56:17.057Z,196
2016-05-17T03:57:17.075Z,212
2016-05-17T03:58:17.077Z,220
2016-05-17T03:59:17.127Z,228
2016-05-17T04:00:17.115Z,236
2016-05-17T04:01:16.976Z,236
2016-05-17T04:02:16.979Z,244
2016-05-17T04:03:17.043Z,256
2016-05-17T04:04:17.172Z,272
2016-05-17T04:05:17.175Z,288
2016-05-17T04:06:17.224Z,304
2016-05-17T04:07:17.227Z,324
2016-05-17T04:08:17.104Z,356
2016-05-17T04:09:17.248Z,372
2016-05-17T04:10:17.266Z,396
2016-05-17T04:11:17.315Z,408
2016-05-17T04:12:17.303Z,416
2016-05-17T04:13:17.165Z,420
2016-05-17T04:14:17.339Z,424
2016-05-17T04:15:17.358Z,424
2016-05-17T04:16:17.361Z,416
2016-05-17T04:17:17.066Z,412
2016-05-17T04:18:17.241Z,392
2016-05-17T04:19:17.461Z,384
2016-05-17T04:20:17.419Z,392
2016-05-17T04:21:17.125Z,408
2016-05-17T04:22:17.486Z,424
2016-05-17T04:23:17.317Z,448
2016-05-17T04:24:17.475Z,468
2016-05-17T04:25:17.510Z,488
2016-05-17T04:26:17.512Z,504
2016-05-17T04:27:17.530Z,524
2016-05-17T04:28:17.393Z,548
2016-05-17T04:29:17.583Z,580
2016-05-17T04:30:17.413Z,608
2016-05-17T04:31:17.432Z,624
2016-05-17T04:32:17.622Z,596
2016-05-17T04:33:17.640Z,576
2016-05-17T04:34:17.643Z,568
2016-05-17T04:35:17.504Z,560
2016-05-17T04:36:17.665Z,552
2016-05-17T04:37:17.699Z,544
2016-05-17T04:38:17.717Z,532
2016-05-17T04:39:17.563Z,512
2016-05-17T04:40:17.581Z,488
2016-05-17T04:41:17.756Z,488
2016-05-17T04:42:17.758Z,488
2016-05-17T04:43:17.620Z,480
2016-05-17T04:44:17.654Z,492
2016-05-17T04:45:17.814Z,488
2016-05-17T04:46:17.817Z,484
2016-05-17T04:47:17.850Z,512
2016-05-17T04:48:17.681Z,536
2016-05-17T04:49:17.886Z,560
2016-05-17T04:50:17.874Z,584
2016-05-17T04:51:17.751Z,592
2016-05-17T04:52:17.926Z,620
2016-05-17T04:53:17.789Z,644
2016-05-17T04:54:17.931Z,660
2016-05-17T04:55:17.825Z,664
2016-05-17T04:56:17.999Z,652
2016-05-17T04:57:17.689Z,636
2016-05-17T04:58:18.021Z,620
2016-05-17T04:59:17.898Z,604
2016-05-17T05:00:18.088Z,612
2016-05-17T05:01:18.044Z,616
2016-05-17T05:02:18.094Z,632
2016-05-17T05:03:18.096Z,652
2016-05-17T05:04:18.115Z,668
2016-05-17T05:05:17.820Z,688
2016-05-17T05:06:18.151Z,720
2016-05-17T05:07:18.215Z,760
2016-05-17T05:08:18.172Z,808
2016-05-17T05:09:18.228Z,852
2016-05-17T05:10:18.273Z,884
2016-05-17T05:11:18.178Z,908
2016-05-17T05:12:18.223Z,928
2016-05-17T05:13:18.441Z,932
2016-05-17T05:14:18.473Z,928
2016-05-17T05:15:18.335Z,908
2016-05-17T05:16:18.557Z,888
2016-05-17T05:17:18.605Z,868
2016-05-17T05:18:18.593Z,844
2016-05-17T05:19:18.622Z,828
2016-05-17T05:20:18.661Z,824
2016-05-17T05:21:18.684Z,816
2016-05-17T05:22:19.286Z,816
2016-05-17T05:23:18.746Z,840
2016-05-17T05:24:18.738Z,900
2016-05-17T05:25:18.618Z,968
2016-05-17T05:26:18.763Z,1036
2016-05-17T05:27:18.799Z,1096
2016-05-17T05:28:18.804Z,1116
2016-05-17T05:29:18.839Z,1092
2016-05-17T05:30:18.842Z,1036
2016-05-17T05:31:18.689Z,984
2016-05-17T05:32:18.880Z,920
2016-05-17T05:33:18.884Z,884
2016-05-17T05:34:18.745Z,888
2016-05-17T05:35:18.765Z,936
2016-05-17T05:36:18.643Z,1028
2016-05-17T05:37:19.052Z,1136
2016-05-17T05:38:18.821Z,1188
2016-05-17T05:39:18.824Z,1252
2016-05-17T05:40:18.998Z,1292
2016-05-17T05:41:19.032Z,1272
2016-05-17T05:42:19.035Z,1284
2016-05-17T05:43:19.069Z,1408
2016-05-17T05:44:19.056Z,1496
2016-05-17T05:45:18.934Z,1516
2016-05-17T05:46:19.093Z,1552
2016-05-17T05:47:19.142Z,1552
2016-05-17T05:48:18.818Z,1528
2016-05-17T05:49:19.147Z,1512
2016-05-17T05:50:18.744Z,1480
2016-05-17T05:51:19.231Z,1452
2016-05-17T05:52:18.937Z,1440
2016-05-17T05:53:19.221Z,1428
2016-05-17T05:54:19.240Z,1400
2016-05-17T05:55:19.070Z,1328
2016-05-17T05:56:19.245Z,1232
2016-05-17T05:57:19.139Z,1168
2016-05-17T05:58:19.281Z,1144
2016-05-17T05:59:19.347Z,1168
2016-05-17T06:00:19.428Z,1168
2016-05-17T06:01:19.414Z,1140
2016-05-17T06:02:19.417Z,1176
2016-05-17T06:03:19.420Z,1264
2016-05-17T06:04:19.422Z,1364
2016-05-17T06:05:19.535Z,1432
2016-05-17T06:06:19.318Z,1540
2016-05-17T06:07:19.993Z,1588
2016-05-17T06:08:19.339Z,1608
2016-05-17T06:09:19.546Z,1636
2016-05-17T06:10:19.548Z,1684
2016-05-17T06:11:19.394Z,1736
2016-05-17T06:12:19.584Z,1772
2016-05-17T06:13:19.587Z,1816
2016-05-17T06:14:19.559Z,1868
2016-05-17T06:15:19.593Z,1904
2016-05-17T06:16:19.595Z,1916
2016-05-17T06:17:19.535Z,1932
2016-05-17T06:18:19.460Z,2020
2016-05-17T06:19:19.603Z,2124
2016-05-17T06:20:19.638Z,2108
2016-05-17T06:21:19.656Z,2020
2016-05-17T06:22:19.595Z,1900
2016-05-17T06:23:19.676Z,1836
2016-05-17T06:24:19.742Z,1868
2016-05-17T06:25:19.714Z,1924
2016-05-17T06:26:19.748Z,2048
2016-05-17T06:27:19.610Z,2260
2016-05-17T06:28:19.611Z,2564
2016-05-17T06:29:19.787Z,2840
2016-05-17T06:30:19.789Z,3024
2016-05-17T06:31:19.667Z,3056
2016-05-17T06:32:19.842Z,3104
2016-05-17T06:36:19.884Z,3452
2016-05-17T06:37:19.761Z,3372
2016-05-17T06:38:19.920Z,3132
2016-05-17T06:39:19.938Z,2776
2016-05-17T06:40:19.941Z,2416
2016-05-17T06:41:19.991Z,2088
2016-05-17T06:42:19.978Z,1860
2016-05-17T06:43:19.840Z,1724
2016-05-17T06:44:19.874Z,1640
2016-05-17T06:45:20.033Z,1604
2016-05-17T06:46:20.066Z,1656
2016-05-17T06:47:20.054Z,1796
2016-05-17T06:48:20.087Z,2004
2016-05-17T06:49:20.106Z,2188
2016-05-17T06:50:20.109Z,2312
2016-05-17T06:51:20.002Z,2432
2016-05-17T06:52:20.176Z,2608
2016-05-17T06:53:20.148Z,2792
2016-05-17T06:54:20.182Z,2964
2016-05-17T06:55:20.200Z,3104
2016-05-17T06:56:20.218Z,3272
2016-05-17T06:57:19.908Z,3464
2016-05-17T06:58:20.240Z,3512
2016-05-17T06:59:20.258Z,3472
2016-05-17T07:00:34.933Z,3384
2016-05-17T07:01:20.372Z,3348
2016-05-17T07:02:20.313Z,3272
2016-05-17T07:03:20.378Z,3224
2016-05-17T07:04:20.380Z,3268
2016-05-17T07:05:20.367Z,3332
2016-05-17T07:06:20.214Z,3368
2016-05-17T07:07:20.498Z,3376
2016-05-17T07:08:20.500Z,3388
2016-05-17T07:09:20.285Z,3428
2016-05-17T07:10:20.505Z,3416
2016-05-17T07:11:20.493Z,3444
2016-05-17T07:12:20.543Z,3540
2016-05-17T07:13:20.452Z,3668
2016-05-17T07:14:20.610Z,3804
2016-05-17T07:15:20.394Z,3996
2016-05-17T07:16:20.647Z,4220
2016-05-17T07:17:20.650Z,4444
2016-05-17T07:18:20.434Z,4664
2016-05-17T07:19:20.640Z,4832
2016-05-17T07:20:20.642Z,4980
2016-05-17T07:21:20.457Z,5124
2016-05-17T07:22:20.632Z,5136
2016-05-17T07:23:20.728Z,5028
2016-05-17T07:24:20.716Z,4760
2016-05-17T07:25:20.687Z,4380
2016-05-17T07:26:20.440Z,4008
2016-05-17T07:27:20.724Z,3732
2016-05-17T07:28:20.742Z,3464
2016-05-17T07:29:20.761Z,3288
2016-05-17T07:30:20.653Z,3192
2016-05-17T07:31:20.812Z,3156
2016-05-17T07:32:20.675Z,3152
2016-05-17T07:33:20.678Z,3184
2016-05-17T07:34:20.852Z,3228
2016-05-17T07:35:20.698Z,3280
2016-05-17T07:36:20.717Z,3360
2016-05-17T07:37:21.438Z,3512
2016-05-17T07:38:20.894Z,3732
2016-05-17T07:39:20.913Z,3904
2016-05-17T07:40:20.930Z,3868
2016-05-17T07:41:20.808Z,3764
2016-05-17T07:42:20.967Z,3660
2016-05-17T07:43:21.001Z,3500
2016-05-17T07:44:20.738Z,3280
2016-05-17T07:45:21.053Z,3160
2016-05-17T07:46:21.041Z,3128
2016-05-17T07:47:20.888Z,3124
2016-05-17T07:48:21.140Z,3104
2016-05-17T07:49:21.080Z,3084
2016-05-17T07:50:20.957Z,3112
2016-05-17T07:51:20.960Z,3196
2016-05-17T07:52:21.432Z,3348
2016-05-17T07:53:20.856Z,3572
2016-05-17T07:54:21.171Z,3888
2016-05-17T07:55:21.220Z,4164
2016-05-17T07:56:21.052Z,4368
2016-05-17T07:57:21.226Z,4484
2016-05-17T07:58:21.245Z,4652
2016-05-17T07:59:21.107Z,4928
2016-05-17T08:00:21.265Z,5256
2016-05-17T08:01:21.284Z,5696
2016-05-17T08:02:21.303Z,6144
2016-05-17T08:03:21.164Z,6604
2016-05-17T08:04:21.339Z,6948
2016-05-17T08:05:21.357Z,7160
2016-05-17T08:06:21.361Z,7324
2016-05-17T08:07:21.456Z,7512
2016-05-17T08:08:21.396Z,7692
2016-05-17T08:09:21.275Z,7880
2016-05-17T08:10:21.433Z,8104
2016-05-17T08:11:21.842Z,8452
2016-05-17T08:12:21.486Z,8488
2016-05-17T08:13:21.379Z,8856
2016-05-17T08:14:21.538Z,8856
2016-05-17T08:15:21.384Z,9048
2016-05-17T08:16:21.558Z,9172
2016-05-17T08:17:21.405Z,8832
2016-05-17T08:18:21.563Z,8644
2016-05-17T08:19:21.660Z,8624
2016-05-17T08:20:21.632Z,8740
2016-05-17T08:21:21.493Z,9000
2016-05-17T08:22:22.200Z,9672
2016-05-17T08:23:21.562Z,9024
2016-05-17T08:24:21.737Z,8924
2016-05-17T08:25:21.817Z,8980
2016-05-17T08:26:21.585Z,9084
2016-05-17T08:27:21.570Z,9308
2016-05-17T08:28:21.856Z,9472
2016-05-17T08:29:21.843Z,9808
2016-05-17T08:30:21.846Z,9652
2016-05-17T08:31:21.693Z,9464
2016-05-17T08:32:21.898Z,9364
2016-05-17T08:33:21.742Z,9412
2016-05-17T08:34:21.745Z,9512
2016-05-17T08:35:21.860Z,9644
2016-05-17T08:36:21.909Z,9684
2016-05-17T08:37:22.256Z,9944
2016-05-17T08:38:21.962Z,9532
2016-05-17T08:39:21.949Z,9532
2016-05-17T08:40:21.902Z,9600
2016-05-17T08:41:21.873Z,9820
2016-05-17T08:42:22.035Z,9908
2016-05-17T08:43:22.085Z,9988
2016-05-17T08:44:22.053Z,9956
2016-05-17T08:45:22.071Z,9840
2016-05-17T08:46:21.933Z,9848
2016-05-17T08:47:22.108Z,9676
2016-05-17T08:48:22.127Z,9444
2016-05-17T08:49:22.160Z,9188
2016-05-17T08:50:22.179Z,8908
2016-05-17T08:51:22.024Z,8552
2016-05-17T08:52:22.515Z,8300
2016-05-17T08:53:22.218Z,8232
2016-05-17T08:54:22.252Z,8280
2016-05-17T08:55:22.099Z,8376
2016-05-17T08:56:22.304Z,8340
2016-05-17T08:57:22.307Z,8272
2016-05-17T08:58:22.169Z,8140
2016-05-17T08:59:22.359Z,8048
2016-05-17T09:00:22.362Z,8012
2016-05-17T09:01:22.209Z,8056
2016-05-17T09:02:22.242Z,8024
2016-05-17T09:03:22.276Z,8116
2016-05-17T09:04:22.450Z,8192
2016-05-17T09:05:22.437Z,8156
2016-05-17T09:06:22.315Z,7980
2016-05-17T09:07:22.774Z,7772
2016-05-17T09:08:22.524Z,7648
2016-05-17T09:09:22.370Z,7624
2016-05-17T09:10:22.545Z,7640
2016-05-17T09:11:22.548Z,7564
2016-05-17T09:12:22.566Z,7516
2016-05-17T09:13:22.584Z,7576
2016-05-17T09:14:22.508Z,7736
2016-05-17T09:15:22.653Z,7908
2016-05-17T09:16:22.514Z,8008
2016-05-17T09:17:22.720Z,8068
2016-05-17T09:18:22.535Z,7944
2016-05-17T09:19:22.725Z,7784
2016-05-17T09:20:22.587Z,7868
2016-05-17T09:21:22.449Z,8080
2016-05-17T09:22:22.671Z,8328
2016-05-17T09:23:22.877Z,8632
2016-05-17T09:24:22.849Z,8904
2016-05-17T09:25:22.851Z,9196
2016-05-17T09:26:22.744Z,9556
2016-05-17T09:27:22.951Z,9988
2016-05-17T09:28:22.953Z,10052
2016-05-17T09:29:22.893Z,9980
2016-05-17T09:30:22.818Z,9856
2016-05-17T09:31:22.976Z,9832
2016-05-17T09:32:22.823Z,9568
2016-05-17T09:33:22.982Z,9436
2016-05-17T09:34:23.032Z,9404
2016-05-17T09:35:23.018Z,9392
2016-05-17T09:36:23.037Z,9536
2016-05-17T09:37:22.931Z,9808
2016-05-17T09:38:23.058Z,9968
2016-05-17T09:39:23.076Z,10252
2016-05-17T09:40:23.111Z,10380
2016-05-17T09:41:23.128Z,10888
2016-05-17T09:42:22.881Z,9652
2016-05-17T09:43:23.025Z,8932
2016-05-17T09:44:23.058Z,8508
2016-05-17T09:45:23.045Z,8312
2016-05-17T09:46:23.110Z,8992
2016-05-17T09:47:23.269Z,9752
2016-05-17T09:48:23.257Z,8888
2016-05-17T09:49:23.290Z,9928
2016-05-17T09:50:23.308Z,8692
2016-05-17T09:51:23.327Z,9004
2016-05-17T09:52:23.424Z,8920
2016-05-17T09:53:23.380Z,9288
2016-05-17T09:54:23.367Z,9132
2016-05-17T09:55:23.400Z,9168
2016-05-17T09:56:23.107Z,8676
2016-05-17T09:57:23.422Z,8800
2016-05-17T09:58:23.299Z,9332
2016-05-17T09:59:23.474Z,9004
2016-05-17T10:00:23.492Z,9136
2016-05-17T10:01:23.510Z,9768
2016-05-17T10:02:23.529Z,10576
2016-05-17T10:03:23.062Z,10360
2016-05-17T10:04:23.253Z,11688
2016-05-17T10:05:23.584Z,10964
2016-05-17T10:06:23.445Z,10968
2016-05-17T10:07:23.870Z,10712
2016-05-17T10:08:23.654Z,10464
2016-05-17T10:09:23.501Z,10236
2016-05-17T10:10:23.691Z,10332
2016-05-17T10:11:23.694Z,9720
2016-05-17T10:12:23.727Z,10844
2016-05-17T10:13:23.746Z,10856
2016-05-17T10:14:23.811Z,10808
2016-05-17T10:15:23.814Z,9416
2016-05-17T10:16:23.661Z,10184
2016-05-17T10:17:23.803Z,8944
2016-05-17T10:18:23.697Z,9988
2016-05-17T10:19:23.700Z,10532
2016-05-17T10:20:23.983Z,10560
2016-05-17T10:21:23.939Z,10392
2016-05-17T10:22:24.177Z,10272
2016-05-17T10:23:23.663Z,9720
2016-05-17T10:24:24.088Z,9620
2016-05-17T10:25:24.106Z,9528
2016-05-17T10:26:23.844Z,9332
2016-05-17T10:27:24.127Z,9668
2016-05-17T10:28:23.926Z,9264
2016-05-17T10:29:23.946Z,9392
2016-05-17T10:30:23.823Z,10492
2016-05-17T10:31:24.184Z,11516
2016-05-17T10:32:24.141Z,11644
2016-05-17T10:33:24.190Z,10876
2016-05-17T10:34:24.193Z,10112
2016-05-17T10:35:24.180Z,9724
2016-05-17T10:36:24.214Z,9376
2016-05-17T10:37:24.638Z,9464
2016-05-17T10:38:24.251Z,9368
2016-05-17T10:39:24.284Z,9600
2016-05-17T10:40:24.303Z,9400
2016-05-17T10:41:24.321Z,9128
2016-05-17T10:42:24.199Z,8976
2016-05-17T10:43:24.358Z,9040
2016-05-17T10:44:24.361Z,9612
2016-05-17T10:45:24.395Z,10556
2016-05-17T10:46:24.397Z,11352
2016-05-17T10:47:24.275Z,12084
2016-05-17T10:48:24.450Z,11844
2016-05-17T10:49:24.467Z,10924
2016-05-17T10:50:24.330Z,11576
2016-05-17T10:51:24.536Z,11316
2016-05-17T10:52:24.555Z,9724
2016-05-17T10:53:24.385Z,9380
2016-05-17T10:54:24.591Z,9312
2016-05-17T10:55:24.437Z,9152
2016-05-17T10:56:24.611Z,8992
2016-05-17T10:57:24.630Z,8968
2016-05-17T10:58:24.663Z,8800
2016-05-17T10:59:24.666Z,8212
2016-05-17T11:00:24.544Z,7928
2016-05-17T11:01:24.563Z,7908
2016-05-17T11:02:24.752Z,8072
2016-05-17T11:03:24.755Z,8540
2016-05-17T11:04:24.632Z,8972
2016-05-17T11:05:24.792Z,10248
2016-05-17T11:06:24.670Z,10852
2016-05-17T11:07:25.422Z,10748
2016-05-17T11:08:24.706Z,8268
2016-05-17T11:09:24.803Z,7856
2016-05-17T11:10:24.962Z,8272
2016-05-17T11:11:24.964Z,8256
2016-05-17T11:12:24.967Z,8412
2016-05-17T11:13:24.969Z,8664
2016-05-17T11:14:25.003Z,9384
2016-05-17T11:15:25.084Z,9876
2016-05-17T11:16:25.086Z,10168
2016-05-17T11:17:24.917Z,10932
2016-05-17T11:18:25.108Z,11740
2016-05-17T11:19:25.205Z,12864
2016-05-17T11:20:24.973Z,10828
2016-05-17T11:21:25.211Z,10028
2016-05-17T11:22:25.743Z,9856
2016-05-17T11:23:25.215Z,9936
2016-05-17T11:24:25.219Z,10272
2016-05-17T11:25:25.252Z,10440
2016-05-17T11:26:25.239Z,11296
2016-05-17T11:27:25.242Z,10904
2016-05-17T11:28:25.276Z,11356
2016-05-17T11:29:25.294Z,9960
2016-05-17T11:30:24.999Z,11912
2016-05-17T11:31:25.330Z,12144
2016-05-17T11:32:25.333Z,11708
2016-05-17T11:33:25.383Z,11344
2016-05-17T11:34:25.385Z,11924
2016-05-17T11:35:25.420Z,9796
2016-05-17T11:36:25.423Z,9500
2016-05-17T11:37:25.221Z,9428
2016-05-17T11:38:25.489Z,9120
2016-05-17T11:39:25.524Z,8892
2016-05-17T11:40:25.511Z,9004
2016-05-17T11:41:25.373Z,9796
2016-05-17T11:42:25.579Z,10464
2016-05-17T11:43:25.581Z,10544
2016-05-17T11:44:25.600Z,10736
2016-05-17T11:45:25.617Z,11000
2016-05-17T11:46:25.636Z,10864
2016-05-17T11:47:25.342Z,10992
2016-05-17T11:48:25.689Z,11840
2016-05-17T11:49:25.550Z,10748
2016-05-17T11:50:25.585Z,10412
2016-05-17T11:51:25.775Z,10160
2016-05-17T11:52:25.621Z,10636
2016-05-17T11:53:25.796Z,10284
2016-05-17T11:54:25.814Z,10308
2016-05-17T11:55:25.676Z,11144
2016-05-17T11:56:25.851Z,10020
2016-05-17T11:57:25.869Z,9360
2016-05-17T11:58:25.887Z,9132
2016-05-17T11:59:25.922Z,9128
2016-05-17T12:00:25.925Z,8684
2016-05-17T12:01:25.957Z,7988
2016-05-17T12:02:25.960Z,7908
2016-05-17T12:03:25.838Z,8936
2016-05-17T12:04:26.060Z,8484
2016-05-17T12:05:26.046Z,8516
2016-05-17T12:06:26.050Z,8144
2016-05-17T12:07:26.115Z,7596
2016-05-17T12:08:25.976Z,6944
2016-05-17T12:09:26.011Z,6264
2016-05-17T12:10:26.217Z,5856
2016-05-17T12:11:26.000Z,5744
2016-05-17T12:12:26.237Z,5744
2016-05-17T12:13:26.225Z,5340
2016-05-17T12:14:26.118Z,4948
2016-05-17T12:15:26.073Z,4756
2016-05-17T12:16:26.342Z,4932
2016-05-17T12:17:26.158Z,5216
2016-05-17T12:18:26.347Z,5472
2016-05-17T12:19:26.350Z,5672
2016-05-17T12:20:26.353Z,5860
2016-05-17T12:21:26.294Z,6072
2016-05-17T12:22:27.389Z,6480
2016-05-17T12:23:26.392Z,7148
2016-05-17T12:24:26.301Z,7220
2016-05-17T12:25:26.460Z,6996
2016-05-17T12:26:26.478Z,7000
2016-05-17T12:27:26.372Z,5352
2016-05-17T12:28:26.499Z,4864
2016-05-17T12:29:26.533Z,4508
2016-05-17T12:30:26.536Z,4104
2016-05-17T12:31:26.430Z,3732
2016-05-17T12:32:26.448Z,3540
2016-05-17T12:33:26.622Z,3476
2016-05-17T12:34:26.469Z,3652
2016-05-17T12:35:26.502Z,3692
2016-05-17T12:36:26.521Z,3820
2016-05-17T12:37:27.007Z,3828
2016-05-17T12:38:26.698Z,3700
2016-05-17T12:39:26.607Z,3608
2016-05-17T12:40:26.751Z,3552
2016-05-17T12:41:26.768Z,3556
2016-05-17T12:42:26.803Z,3628
2016-05-17T12:43:26.806Z,3776
2016-05-17T12:44:26.824Z,3952
2016-05-17T12:45:26.717Z,4128
2016-05-17T12:46:26.861Z,4356
2016-05-17T12:47:26.895Z,4616
2016-05-17T12:48:26.819Z,4624
2016-05-17T12:49:26.930Z,4388
2016-05-17T12:50:26.964Z,4052
2016-05-17T12:51:26.827Z,3772
2016-05-17T12:52:27.548Z,3492
2016-05-17T12:53:26.863Z,3256
2016-05-17T12:54:27.038Z,2972
2016-05-17T12:55:27.056Z,2696
2016-05-17T12:56:27.075Z,2372
2016-05-17T12:57:27.016Z,2136
2016-05-17T12:58:27.174Z,1996
2016-05-17T12:59:27.207Z,1900
2016-05-17T13:00:27.148Z,1856
2016-05-17T13:01:27.197Z,1924
2016-05-17T13:02:27.200Z,2084
2016-05-17T13:03:27.063Z,2340
2016-05-17T13:04:27.299Z,2612
2016-05-17T13:05:27.130Z,2892
2016-05-17T13:06:27.321Z,3228
2016-05-17T13:07:27.526Z,3564
2016-05-17T13:08:27.404Z,3916
2016-05-17T13:09:27.437Z,4268
2016-05-17T13:10:27.425Z,4648
2016-05-17T13:11:27.428Z,5072
2016-05-17T13:12:27.212Z,5584
2016-05-17T13:13:27.448Z,6172
2016-05-17T13:14:27.264Z,6788
2016-05-17T13:15:27.345Z,7320
2016-05-17T13:16:27.332Z,7712
2016-05-17T13:17:27.491Z,7932
2016-05-17T13:18:27.384Z,8012
2016-05-17T13:19:27.527Z,7980
2016-05-17T13:20:27.545Z,7932
2016-05-17T13:21:27.408Z,7808
2016-05-17T13:22:27.614Z,7696
2016-05-17T13:23:27.631Z,7692
2016-05-17T13:24:27.619Z,7764
2016-05-17T13:25:27.652Z,7936
2016-05-17T13:26:27.672Z,8164
2016-05-17T13:27:27.689Z,8348
2016-05-17T13:28:27.692Z,8360
2016-05-17T13:29:27.726Z,8160
2016-05-17T13:30:27.416Z,7792
2016-05-17T13:31:27.590Z,7292
2016-05-17T13:32:27.765Z,6584
2016-05-17T13:33:27.799Z,5944
2016-05-17T13:34:27.818Z,5304
2016-05-17T13:35:27.851Z,4640
2016-05-17T13:36:27.885Z,3988
2016-05-17T13:37:28.216Z,3472
2016-05-17T13:38:27.907Z,3204
2016-05-17T13:39:27.784Z,3120
2016-05-17T13:40:27.927Z,3168
2016-05-17T13:41:27.805Z,3364
2016-05-17T13:42:27.996Z,3616
2016-05-17T13:43:27.873Z,3908
2016-05-17T13:44:27.892Z,4184